sensor_id;sensor_type;location;lat;lon;timestamp;temperature;humidity
16404;DHT22;8311;50.158;8.642;2023-12-14T00:02:05;21.00;55.00
16404;DHT22;8311;50.158;8.642;2023-12-14T00:04:58;21.10;55.10
16404;DHT22;8311;50.158;8.642;2023-12-14T00:07:51;21.00;55.10
16404;DHT22;8311;50.158;8.642;2023-12-14T00:10:45;21.00;55.10
16404;DHT22;8311;50.158;8.642;2023-12-14T00:13:39;21.00;55.10
16404;DHT22;8311;50.158;8.642;2023-12-14T00:16:32;21.00;55.10
16404;DHT22;8311;50.158;8.642;2023-12-14T00:19:26;21.10;55.20
16404;DHT22;8311;50.158;8.642;2023-12-14T00:22:19;21.00;55.10
16404;DHT22;8311;50.158;8.642;2023-12-14T00:25:12;21.00;55.10
16404;DHT22;8311;50.158;8.642;2023-12-14T00:28:07;21.00;55.10
16404;DHT22;8311;50.158;8.642;2023-12-14T00:31:00;21.00;55.20
16404;DHT22;8311;50.158;8.642;2023-12-14T00:33:53;21.00;55.30
16404;DHT22;8311;50.158;8.642;2023-12-14T00:36:46;21.00;55.70
16404;DHT22;8311;50.158;8.642;2023-12-14T00:39:39;21.00;55.50
16404;DHT22;8311;50.158;8.642;2023-12-14T00:42:32;21.10;55.50
16404;DHT22;8311;50.158;8.642;2023-12-14T00:45:27;21.10;55.50
16404;DHT22;8311;50.158;8.642;2023-12-14T00:48:20;21.10;55.60
16404;DHT22;8311;50.158;8.642;2023-12-14T00:51:13;21.10;55.60
16404;DHT22;8311;50.158;8.642;2023-12-14T00:54:06;21.10;55.60
16404;DHT22;8311;50.158;8.642;2023-12-14T00:56:59;21.10;55.80
16404;DHT22;8311;50.158;8.642;2023-12-14T00:59:52;21.10;55.80
16404;DHT22;8311;50.158;8.642;2023-12-14T01:02:48;21.10;55.90
16404;DHT22;8311;50.158;8.642;2023-12-14T01:05:41;21.00;55.90
16404;DHT22;8311;50.158;8.642;2023-12-14T01:08:34;21.00;55.90
16404;DHT22;8311;50.158;8.642;2023-12-14T01:11:27;21.10;56.00
16404;DHT22;8311;50.158;8.642;2023-12-14T01:14:20;21.10;55.90
16404;DHT22;8311;50.158;8.642;2023-12-14T01:17:13;21.00;55.90
16404;DHT22;8311;50.158;8.642;2023-12-14T01:20:11;21.00;55.90
16404;DHT22;8311;50.158;8.642;2023-12-14T01:23:04;21.10;55.90
16404;DHT22;8311;50.158;8.642;2023-12-14T01:25:58;21.00;56.00
16404;DHT22;8311;50.158;8.642;2023-12-14T01:28:51;21.10;56.10
16404;DHT22;8311;50.158;8.642;2023-12-14T01:31:44;21.00;55.90
16404;DHT22;8311;50.158;8.642;2023-12-14T01:34:37;21.10;56.00
16404;DHT22;8311;50.158;8.642;2023-12-14T01:37:31;21.10;56.10
16404;DHT22;8311;50.158;8.642;2023-12-14T01:40:24;21.10;56.10
16404;DHT22;8311;50.158;8.642;2023-12-14T01:43:17;21.00;56.10
16404;DHT22;8311;50.158;8.642;2023-12-14T01:46:10;21.10;56.20
16404;DHT22;8311;50.158;8.642;2023-12-14T01:49:04;21.10;56.20
16404;DHT22;8311;50.158;8.642;2023-12-14T01:51:57;21.10;56.20
16404;DHT22;8311;50.158;8.642;2023-12-14T01:54:51;21.10;56.10
16404;DHT22;8311;50.158;8.642;2023-12-14T01:57:47;21.10;56.30
16404;DHT22;8311;50.158;8.642;2023-12-14T02:00:46;21.10;56.50
16404;DHT22;8311;50.158;8.642;2023-12-14T02:03:44;21.10;56.30
16404;DHT22;8311;50.158;8.642;2023-12-14T02:06:37;21.10;56.20
16404;DHT22;8311;50.158;8.642;2023-12-14T02:09:30;21.10;56.20
16404;DHT22;8311;50.158;8.642;2023-12-14T02:12:24;21.10;56.30
16404;DHT22;8311;50.158;8.642;2023-12-14T02:15:18;21.10;56.40
16404;DHT22;8311;50.158;8.642;2023-12-14T02:18:11;21.10;56.40
16404;DHT22;8311;50.158;8.642;2023-12-14T02:21:04;21.10;56.40
16404;DHT22;8311;50.158;8.642;2023-12-14T02:23:59;21.10;56.50
16404;DHT22;8311;50.158;8.642;2023-12-14T02:26:52;21.10;56.50
16404;DHT22;8311;50.158;8.642;2023-12-14T02:29:54;21.00;56.50
16404;DHT22;8311;50.158;8.642;2023-12-14T02:32:47;21.10;57.20
16404;DHT22;8311;50.158;8.642;2023-12-14T02:35:40;21.10;56.90
16404;DHT22;8311;50.158;8.642;2023-12-14T02:38:33;21.00;56.90
16404;DHT22;8311;50.158;8.642;2023-12-14T02:41:27;21.10;58.40
16404;DHT22;8311;50.158;8.642;2023-12-14T02:44:20;21.10;58.00
16404;DHT22;8311;50.158;8.642;2023-12-14T02:47:13;21.10;58.20
16404;DHT22;8311;50.158;8.642;2023-12-14T02:50:07;21.10;58.20
16404;DHT22;8311;50.158;8.642;2023-12-14T02:53:00;21.00;57.60
16404;DHT22;8311;50.158;8.642;2023-12-14T02:55:54;21.10;58.00
16404;DHT22;8311;50.158;8.642;2023-12-14T02:58:49;21.00;57.50
16404;DHT22;8311;50.158;8.642;2023-12-14T03:01:43;21.10;57.40
16404;DHT22;8311;50.158;8.642;2023-12-14T03:04:37;21.10;57.30
16404;DHT22;8311;50.158;8.642;2023-12-14T03:07:30;21.10;57.50
16404;DHT22;8311;50.158;8.642;2023-12-14T03:10:23;21.10;57.00
16404;DHT22;8311;50.158;8.642;2023-12-14T03:13:16;21.10;56.80
16404;DHT22;8311;50.158;8.642;2023-12-14T03:16:10;21.10;56.60
16404;DHT22;8311;50.158;8.642;2023-12-14T03:19:03;21.00;56.60
16404;DHT22;8311;50.158;8.642;2023-12-14T03:21:57;21.10;56.60
16404;DHT22;8311;50.158;8.642;2023-12-14T03:24:51;21.10;56.50
16404;DHT22;8311;50.158;8.642;2023-12-14T03:27:43;21.00;56.50
16404;DHT22;8311;50.158;8.642;2023-12-14T03:30:36;21.00;56.50
16404;DHT22;8311;50.158;8.642;2023-12-14T03:33:31;21.00;56.50
16404;DHT22;8311;50.158;8.642;2023-12-14T03:36:24;21.00;56.50
16404;DHT22;8311;50.158;8.642;2023-12-14T03:39:18;21.00;56.50
16404;DHT22;8311;50.158;8.642;2023-12-14T03:42:11;21.00;56.50
16404;DHT22;8311;50.158;8.642;2023-12-14T03:45:05;21.00;56.70
16404;DHT22;8311;50.158;8.642;2023-12-14T03:47:59;21.00;56.80
16404;DHT22;8311;50.158;8.642;2023-12-14T03:50:54;21.00;56.70
16404;DHT22;8311;50.158;8.642;2023-12-14T03:53:47;21.00;56.70
16404;DHT22;8311;50.158;8.642;2023-12-14T03:56:40;21.00;56.60
16404;DHT22;8311;50.158;8.642;2023-12-14T03:59:33;21.00;56.60
16404;DHT22;8311;50.158;8.642;2023-12-14T04:02:27;21.10;57.20
16404;DHT22;8311;50.158;8.642;2023-12-14T04:05:21;21.00;57.00
16404;DHT22;8311;50.158;8.642;2023-12-14T04:08:16;21.00;57.30
16404;DHT22;8311;50.158;8.642;2023-12-14T04:11:09;21.00;56.80
16404;DHT22;8311;50.158;8.642;2023-12-14T04:14:02;21.10;57.00
16404;DHT22;8311;50.158;8.642;2023-12-14T04:16:56;21.00;56.70
16404;DHT22;8311;50.158;8.642;2023-12-14T04:19:50;21.00;56.70
16404;DHT22;8311;50.158;8.642;2023-12-14T04:22:43;21.00;56.60
16404;DHT22;8311;50.158;8.642;2023-12-14T04:25:38;21.00;56.60
16404;DHT22;8311;50.158;8.642;2023-12-14T04:28:31;21.00;56.60
16404;DHT22;8311;50.158;8.642;2023-12-14T04:31:24;21.00;56.60
16404;DHT22;8311;50.158;8.642;2023-12-14T04:34:17;21.00;56.60
16404;DHT22;8311;50.158;8.642;2023-12-14T04:37:11;21.00;56.60
16404;DHT22;8311;50.158;8.642;2023-12-14T04:40:04;21.00;56.60
16404;DHT22;8311;50.158;8.642;2023-12-14T04:42:58;21.00;56.60
16404;DHT22;8311;50.158;8.642;2023-12-14T04:45:51;21.00;56.70
16404;DHT22;8311;50.158;8.642;2023-12-14T04:48:45;21.00;56.60
16404;DHT22;8311;50.158;8.642;2023-12-14T04:51:38;21.00;56.50
16404;DHT22;8311;50.158;8.642;2023-12-14T04:54:32;21.00;56.60
16404;DHT22;8311;50.158;8.642;2023-12-14T04:57:27;21.00;56.60
16404;DHT22;8311;50.158;8.642;2023-12-14T05:00:22;21.00;56.60
16404;DHT22;8311;50.158;8.642;2023-12-14T05:03:15;21.00;56.60
16404;DHT22;8311;50.158;8.642;2023-12-14T05:06:08;21.00;56.70
16404;DHT22;8311;50.158;8.642;2023-12-14T05:09:01;21.00;56.80
16404;DHT22;8311;50.158;8.642;2023-12-14T05:11:57;21.00;56.90
16404;DHT22;8311;50.158;8.642;2023-12-14T05:14:50;21.00;57.20
16404;DHT22;8311;50.158;8.642;2023-12-14T05:17:46;21.00;57.10
16404;DHT22;8311;50.158;8.642;2023-12-14T05:20:39;21.00;56.80
16404;DHT22;8311;50.158;8.642;2023-12-14T05:23:32;21.00;57.00
16404;DHT22;8311;50.158;8.642;2023-12-14T05:26:25;21.00;56.80
16404;DHT22;8311;50.158;8.642;2023-12-14T05:29:18;21.00;56.80
16404;DHT22;8311;50.158;8.642;2023-12-14T05:32:13;21.00;56.80
16404;DHT22;8311;50.158;8.642;2023-12-14T05:35:08;21.00;56.80
16404;DHT22;8311;50.158;8.642;2023-12-14T05:38:02;21.00;56.80
16404;DHT22;8311;50.158;8.642;2023-12-14T05:40:55;21.00;56.90
16404;DHT22;8311;50.158;8.642;2023-12-14T05:43:48;21.00;56.90
16404;DHT22;8311;50.158;8.642;2023-12-14T05:46:41;21.00;56.80
16404;DHT22;8311;50.158;8.642;2023-12-14T05:49:34;21.00;56.70
16404;DHT22;8311;50.158;8.642;2023-12-14T05:52:30;21.00;56.70
16404;DHT22;8311;50.158;8.642;2023-12-14T05:55:23;21.00;56.70
16404;DHT22;8311;50.158;8.642;2023-12-14T05:58:16;21.00;56.70
16404;DHT22;8311;50.158;8.642;2023-12-14T06:01:10;21.00;56.70
16404;DHT22;8311;50.158;8.642;2023-12-14T06:04:03;21.00;56.70
16404;DHT22;8311;50.158;8.642;2023-12-14T06:06:56;21.00;56.70
16404;DHT22;8311;50.158;8.642;2023-12-14T06:09:51;21.00;56.70
16404;DHT22;8311;50.158;8.642;2023-12-14T06:12:43;21.00;56.70
16404;DHT22;8311;50.158;8.642;2023-12-14T06:15:36;20.90;56.70
16404;DHT22;8311;50.158;8.642;2023-12-14T06:18:30;21.00;56.80
16404;DHT22;8311;50.158;8.642;2023-12-14T06:21:24;20.90;56.80
16404;DHT22;8311;50.158;8.642;2023-12-14T06:24:21;21.00;56.80
16404;DHT22;8311;50.158;8.642;2023-12-14T06:27:16;20.90;56.70
16404;DHT22;8311;50.158;8.642;2023-12-14T06:30:10;20.90;56.90
16404;DHT22;8311;50.158;8.642;2023-12-14T06:33:03;21.00;57.20
16404;DHT22;8311;50.158;8.642;2023-12-14T06:35:56;21.00;57.00
16404;DHT22;8311;50.158;8.642;2023-12-14T06:38:49;21.00;56.90
16404;DHT22;8311;50.158;8.642;2023-12-14T06:41:43;21.00;56.90
16404;DHT22;8311;50.158;8.642;2023-12-14T06:44:37;21.00;56.80
16404;DHT22;8311;50.158;8.642;2023-12-14T06:47:31;21.00;56.80
16404;DHT22;8311;50.158;8.642;2023-12-14T06:50:25;21.00;56.90
16404;DHT22;8311;50.158;8.642;2023-12-14T06:53:17;21.00;56.90
16404;DHT22;8311;50.158;8.642;2023-12-14T06:56:12;21.00;56.80
16404;DHT22;8311;50.158;8.642;2023-12-14T06:59:05;21.00;56.80
16404;DHT22;8311;50.158;8.642;2023-12-14T07:02:00;21.00;56.80
16404;DHT22;8311;50.158;8.642;2023-12-14T07:04:53;21.00;57.00
16404;DHT22;8311;50.158;8.642;2023-12-14T07:07:45;21.00;57.60
16404;DHT22;8311;50.158;8.642;2023-12-14T07:10:41;21.00;56.90
16404;DHT22;8311;50.158;8.642;2023-12-14T07:13:35;21.00;56.90
16404;DHT22;8311;50.158;8.642;2023-12-14T07:16:28;21.00;57.20
16404;DHT22;8311;50.158;8.642;2023-12-14T07:19:22;21.00;58.10
16404;DHT22;8311;50.158;8.642;2023-12-14T07:22:15;20.90;58.30
16404;DHT22;8311;50.158;8.642;2023-12-14T07:25:08;21.00;58.60
16404;DHT22;8311;50.158;8.642;2023-12-14T07:28:01;20.90;58.30
16404;DHT22;8311;50.158;8.642;2023-12-14T07:30:55;21.00;57.80
16404;DHT22;8311;50.158;8.642;2023-12-14T07:33:48;21.00;57.50
16404;DHT22;8311;50.158;8.642;2023-12-14T07:36:43;21.00;57.30
16404;DHT22;8311;50.158;8.642;2023-12-14T07:39:35;21.00;57.30
16404;DHT22;8311;50.158;8.642;2023-12-14T07:42:29;21.00;57.20
16404;DHT22;8311;50.158;8.642;2023-12-14T07:45:22;21.00;57.10
16404;DHT22;8311;50.158;8.642;2023-12-14T07:48:16;20.90;57.10
16404;DHT22;8311;50.158;8.642;2023-12-14T07:51:08;20.90;57.10
16404;DHT22;8311;50.158;8.642;2023-12-14T07:54:03;21.00;57.40
16404;DHT22;8311;50.158;8.642;2023-12-14T07:56:56;20.90;58.00
16404;DHT22;8311;50.158;8.642;2023-12-14T07:59:49;20.90;57.50
16404;DHT22;8311;50.158;8.642;2023-12-14T08:02:42;21.00;57.70
16404;DHT22;8311;50.158;8.642;2023-12-14T08:05:36;21.00;57.70
16404;DHT22;8311;50.158;8.642;2023-12-14T08:08:29;21.00;57.60
16404;DHT22;8311;50.158;8.642;2023-12-14T08:11:24;21.00;57.90
16404;DHT22;8311;50.158;8.642;2023-12-14T08:14:17;20.90;57.90
16404;DHT22;8311;50.158;8.642;2023-12-14T08:17:10;21.00;58.00
16404;DHT22;8311;50.158;8.642;2023-12-14T08:20:04;20.90;57.90
16404;DHT22;8311;50.158;8.642;2023-12-14T08:23:00;20.90;58.10
16404;DHT22;8311;50.158;8.642;2023-12-14T08:25:54;21.00;58.00
16404;DHT22;8311;50.158;8.642;2023-12-14T08:28:50;21.00;58.00
16404;DHT22;8311;50.158;8.642;2023-12-14T08:31:42;21.00;58.10
16404;DHT22;8311;50.158;8.642;2023-12-14T08:34:35;20.90;57.80
16404;DHT22;8311;50.158;8.642;2023-12-14T08:37:29;21.00;58.00
16404;DHT22;8311;50.158;8.642;2023-12-14T08:40:23;20.90;58.30
16404;DHT22;8311;50.158;8.642;2023-12-14T08:43:17;21.00;58.70
16404;DHT22;8311;50.158;8.642;2023-12-14T08:46:11;21.00;58.40
16404;DHT22;8311;50.158;8.642;2023-12-14T08:49:05;21.00;58.40
16404;DHT22;8311;50.158;8.642;2023-12-14T08:51:59;20.90;58.40
16404;DHT22;8311;50.158;8.642;2023-12-14T08:54:52;21.00;58.50
16404;DHT22;8311;50.158;8.642;2023-12-14T08:57:44;21.00;58.80
16404;DHT22;8311;50.158;8.642;2023-12-14T09:00:37;21.00;58.70
16404;DHT22;8311;50.158;8.642;2023-12-14T09:03:33;21.00;58.70
16404;DHT22;8311;50.158;8.642;2023-12-14T09:06:26;21.00;58.60
16404;DHT22;8311;50.158;8.642;2023-12-14T09:09:20;21.00;59.30
16404;DHT22;8311;50.158;8.642;2023-12-14T09:12:13;21.00;59.40
16404;DHT22;8311;50.158;8.642;2023-12-14T09:15:07;21.00;60.30
16404;DHT22;8311;50.158;8.642;2023-12-14T09:18:01;21.00;60.30
16404;DHT22;8311;50.158;8.642;2023-12-14T09:20:56;21.00;60.30
16404;DHT22;8311;50.158;8.642;2023-12-14T09:23:49;21.00;60.00
16404;DHT22;8311;50.158;8.642;2023-12-14T09:26:45;20.90;59.70
16404;DHT22;8311;50.158;8.642;2023-12-14T09:29:39;21.00;60.20
16404;DHT22;8311;50.158;8.642;2023-12-14T09:32:32;21.00;60.10
16404;DHT22;8311;50.158;8.642;2023-12-14T09:35:26;20.90;60.00
16404;DHT22;8311;50.158;8.642;2023-12-14T09:38:21;21.00;60.00
16404;DHT22;8311;50.158;8.642;2023-12-14T09:41:15;21.00;59.60
16404;DHT22;8311;50.158;8.642;2023-12-14T09:44:08;21.00;60.20
16404;DHT22;8311;50.158;8.642;2023-12-14T09:47:05;20.90;59.60
16404;DHT22;8311;50.158;8.642;2023-12-14T09:49:59;21.00;59.60
16404;DHT22;8311;50.158;8.642;2023-12-14T09:52:54;21.00;59.90
16404;DHT22;8311;50.158;8.642;2023-12-14T09:55:49;21.00;59.60
16404;DHT22;8311;50.158;8.642;2023-12-14T09:58:43;21.00;59.60
16404;DHT22;8311;50.158;8.642;2023-12-14T10:01:36;20.90;58.50
16404;DHT22;8311;50.158;8.642;2023-12-14T10:04:32;21.00;59.00
16404;DHT22;8311;50.158;8.642;2023-12-14T10:07:26;20.90;59.20
16404;DHT22;8311;50.158;8.642;2023-12-14T10:10:19;21.00;59.10
16404;DHT22;8311;50.158;8.642;2023-12-14T10:13:14;21.00;59.60
16404;DHT22;8311;50.158;8.642;2023-12-14T10:16:07;21.00;60.10
16404;DHT22;8311;50.158;8.642;2023-12-14T10:19:01;21.00;60.20
16404;DHT22;8311;50.158;8.642;2023-12-14T10:21:54;21.00;60.40
16404;DHT22;8311;50.158;8.642;2023-12-14T10:24:48;21.00;60.50
16404;DHT22;8311;50.158;8.642;2023-12-14T10:27:42;21.00;60.30
16404;DHT22;8311;50.158;8.642;2023-12-14T10:30:36;21.00;60.00
16404;DHT22;8311;50.158;8.642;2023-12-14T10:33:48;21.00;60.60
16404;DHT22;8311;50.158;8.642;2023-12-14T10:36:45;21.00;60.00
16404;DHT22;8311;50.158;8.642;2023-12-14T10:39:42;21.00;59.30
16404;DHT22;8311;50.158;8.642;2023-12-14T10:42:38;21.00;59.10
16404;DHT22;8311;50.158;8.642;2023-12-14T10:45:33;20.90;58.90
16404;DHT22;8311;50.158;8.642;2023-12-14T10:48:29;21.00;58.70
16404;DHT22;8311;50.158;8.642;2023-12-14T10:51:24;21.00;58.60
16404;DHT22;8311;50.158;8.642;2023-12-14T10:54:19;20.90;58.40
16404;DHT22;8311;50.158;8.642;2023-12-14T10:57:12;20.90;58.30
16404;DHT22;8311;50.158;8.642;2023-12-14T11:00:07;20.90;58.20
16404;DHT22;8311;50.158;8.642;2023-12-14T11:03:04;20.90;58.20
16404;DHT22;8311;50.158;8.642;2023-12-14T11:06:00;20.90;58.20
16404;DHT22;8311;50.158;8.642;2023-12-14T11:09:05;20.90;58.60
16404;DHT22;8311;50.158;8.642;2023-12-14T11:12:00;20.90;57.90
16404;DHT22;8311;50.158;8.642;2023-12-14T11:14:56;20.90;57.80
16404;DHT22;8311;50.158;8.642;2023-12-14T11:18:21;20.90;57.80
16404;DHT22;8311;50.158;8.642;2023-12-14T11:21:19;20.80;57.70
16404;DHT22;8311;50.158;8.642;2023-12-14T11:24:13;20.90;57.60
16404;DHT22;8311;50.158;8.642;2023-12-14T11:27:06;20.90;57.90
16404;DHT22;8311;50.158;8.642;2023-12-14T11:30:00;20.90;57.60
16404;DHT22;8311;50.158;8.642;2023-12-14T11:32:55;20.90;54.20
16404;DHT22;8311;50.158;8.642;2023-12-14T11:35:48;20.90;55.40
16404;DHT22;8311;50.158;8.642;2023-12-14T11:38:44;20.90;56.20
16404;DHT22;8311;50.158;8.642;2023-12-14T11:41:39;20.90;56.50
16404;DHT22;8311;50.158;8.642;2023-12-14T11:44:31;20.90;56.70
16404;DHT22;8311;50.158;8.642;2023-12-14T11:47:27;20.90;56.80
16404;DHT22;8311;50.158;8.642;2023-12-14T11:50:20;20.80;56.80
16404;DHT22;8311;50.158;8.642;2023-12-14T11:53:14;20.90;56.90
16404;DHT22;8311;50.158;8.642;2023-12-14T11:56:09;20.80;56.90
16404;DHT22;8311;50.158;8.642;2023-12-14T11:59:03;20.80;56.90
16404;DHT22;8311;50.158;8.642;2023-12-14T12:01:57;20.80;56.80
16404;DHT22;8311;50.158;8.642;2023-12-14T12:04:51;20.80;56.90
16404;DHT22;8311;50.158;8.642;2023-12-14T12:07:46;20.80;56.90
16404;DHT22;8311;50.158;8.642;2023-12-14T12:10:40;20.80;56.90
16404;DHT22;8311;50.158;8.642;2023-12-14T12:13:35;20.80;56.90
16404;DHT22;8311;50.158;8.642;2023-12-14T12:16:29;20.80;56.80
16404;DHT22;8311;50.158;8.642;2023-12-14T12:19:23;20.80;56.80
16404;DHT22;8311;50.158;8.642;2023-12-14T12:22:17;20.80;56.80
16404;DHT22;8311;50.158;8.642;2023-12-14T12:25:11;20.80;56.80
16404;DHT22;8311;50.158;8.642;2023-12-14T12:28:07;20.80;56.80
16404;DHT22;8311;50.158;8.642;2023-12-14T12:31:03;20.80;56.80
16404;DHT22;8311;50.158;8.642;2023-12-14T12:33:56;20.80;57.40
16404;DHT22;8311;50.158;8.642;2023-12-14T12:36:49;20.80;56.80
16404;DHT22;8311;50.158;8.642;2023-12-14T12:39:43;20.80;56.80
16404;DHT22;8311;50.158;8.642;2023-12-14T12:42:36;20.80;56.80
16404;DHT22;8311;50.158;8.642;2023-12-14T12:45:29;20.80;56.80
16404;DHT22;8311;50.158;8.642;2023-12-14T12:48:25;20.80;56.80
16404;DHT22;8311;50.158;8.642;2023-12-14T12:51:20;20.70;56.70
16404;DHT22;8311;50.158;8.642;2023-12-14T12:54:13;20.80;56.90
16404;DHT22;8311;50.158;8.642;2023-12-14T12:57:06;20.80;56.90
16404;DHT22;8311;50.158;8.642;2023-12-14T12:59:59;20.80;56.80
16404;DHT22;8311;50.158;8.642;2023-12-14T13:02:51;20.80;56.80
16404;DHT22;8311;50.158;8.642;2023-12-14T13:05:49;20.70;56.70
16404;DHT22;8311;50.158;8.642;2023-12-14T13:08:42;20.80;56.80
16404;DHT22;8311;50.158;8.642;2023-12-14T13:11:35;20.80;56.80
16404;DHT22;8311;50.158;8.642;2023-12-14T13:14:28;20.70;56.70
16404;DHT22;8311;50.158;8.642;2023-12-14T13:17:21;20.80;56.80
16404;DHT22;8311;50.158;8.642;2023-12-14T13:20:15;20.80;56.70
16404;DHT22;8311;50.158;8.642;2023-12-14T13:23:11;20.70;56.60
16404;DHT22;8311;50.158;8.642;2023-12-14T13:26:04;20.70;56.60
16404;DHT22;8311;50.158;8.642;2023-12-14T13:28:57;20.70;57.20
16404;DHT22;8311;50.158;8.642;2023-12-14T13:31:50;20.70;56.50
16404;DHT22;8311;50.158;8.642;2023-12-14T13:34:44;20.70;56.50
16404;DHT22;8311;50.158;8.642;2023-12-14T13:37:37;20.70;56.50
16404;DHT22;8311;50.158;8.642;2023-12-14T13:40:32;20.70;56.60
16404;DHT22;8311;50.158;8.642;2023-12-14T13:43:26;20.70;56.50
16404;DHT22;8311;50.158;8.642;2023-12-14T13:46:20;20.70;56.50
16404;DHT22;8311;50.158;8.642;2023-12-14T13:49:16;20.70;56.50
16404;DHT22;8311;50.158;8.642;2023-12-14T13:52:09;20.70;56.50
16404;DHT22;8311;50.158;8.642;2023-12-14T13:55:02;20.70;56.50
16404;DHT22;8311;50.158;8.642;2023-12-14T13:57:57;20.70;56.50
16404;DHT22;8311;50.158;8.642;2023-12-14T14:00:52;20.70;56.50
16404;DHT22;8311;50.158;8.642;2023-12-14T14:03:45;20.70;56.50
16404;DHT22;8311;50.158;8.642;2023-12-14T14:06:39;20.70;56.50
16404;DHT22;8311;50.158;8.642;2023-12-14T14:09:32;20.70;56.50
16404;DHT22;8311;50.158;8.642;2023-12-14T14:12:26;20.70;56.50
16404;DHT22;8311;50.158;8.642;2023-12-14T14:15:20;20.70;56.50
16404;DHT22;8311;50.158;8.642;2023-12-14T14:18:14;20.70;56.50
16404;DHT22;8311;50.158;8.642;2023-12-14T14:21:07;20.60;56.40
16404;DHT22;8311;50.158;8.642;2023-12-14T14:24:00;20.60;56.40
16404;DHT22;8311;50.158;8.642;2023-12-14T14:26:53;20.60;56.40
16404;DHT22;8311;50.158;8.642;2023-12-14T14:29:46;20.60;56.40
16404;DHT22;8311;50.158;8.642;2023-12-14T14:32:40;20.60;56.40
16404;DHT22;8311;50.158;8.642;2023-12-14T14:35:34;20.60;56.40
16404;DHT22;8311;50.158;8.642;2023-12-14T14:38:29;20.60;56.40
16404;DHT22;8311;50.158;8.642;2023-12-14T14:41:22;20.60;56.40
16404;DHT22;8311;50.158;8.642;2023-12-14T14:44:16;20.60;56.40
16404;DHT22;8311;50.158;8.642;2023-12-14T14:47:10;20.60;56.40
16404;DHT22;8311;50.158;8.642;2023-12-14T14:50:07;20.60;57.00
16404;DHT22;8311;50.158;8.642;2023-12-14T14:53:01;20.60;57.00
16404;DHT22;8311;50.158;8.642;2023-12-14T14:55:58;20.60;56.40
16404;DHT22;8311;50.158;8.642;2023-12-14T14:58:51;20.60;56.40
16404;DHT22;8311;50.158;8.642;2023-12-14T15:01:45;20.60;56.30
16404;DHT22;8311;50.158;8.642;2023-12-14T15:04:39;20.60;56.40
16404;DHT22;8311;50.158;8.642;2023-12-14T15:07:33;20.60;56.30
16404;DHT22;8311;50.158;8.642;2023-12-14T15:10:27;20.60;56.30
16404;DHT22;8311;50.158;8.642;2023-12-14T15:13:20;20.60;56.30
16404;DHT22;8311;50.158;8.642;2023-12-14T15:16:14;20.60;56.40
16404;DHT22;8311;50.158;8.642;2023-12-14T15:19:07;20.60;56.30
16404;DHT22;8311;50.158;8.642;2023-12-14T15:22:01;20.60;56.30
16404;DHT22;8311;50.158;8.642;2023-12-14T15:24:56;20.60;56.30
16404;DHT22;8311;50.158;8.642;2023-12-14T15:27:49;20.60;56.30
16404;DHT22;8311;50.158;8.642;2023-12-14T15:30:42;20.60;56.30
16404;DHT22;8311;50.158;8.642;2023-12-14T15:33:35;20.60;56.30
16404;DHT22;8311;50.158;8.642;2023-12-14T15:36:29;20.60;56.30
16404;DHT22;8311;50.158;8.642;2023-12-14T15:39:24;20.60;56.30
16404;DHT22;8311;50.158;8.642;2023-12-14T15:42:18;20.60;56.20
16404;DHT22;8311;50.158;8.642;2023-12-14T15:45:12;20.60;56.20
16404;DHT22;8311;50.158;8.642;2023-12-14T15:48:06;20.60;56.20
16404;DHT22;8311;50.158;8.642;2023-12-14T15:51:01;20.60;56.20
16404;DHT22;8311;50.158;8.642;2023-12-14T15:53:59;20.60;56.20
16404;DHT22;8311;50.158;8.642;2023-12-14T15:56:52;20.60;56.20
16404;DHT22;8311;50.158;8.642;2023-12-14T15:59:46;20.60;56.20
16404;DHT22;8311;50.158;8.642;2023-12-14T16:02:40;20.60;56.20
16404;DHT22;8311;50.158;8.642;2023-12-14T16:05:34;20.50;56.20
16404;DHT22;8311;50.158;8.642;2023-12-14T16:08:28;20.60;56.20
16404;DHT22;8311;50.158;8.642;2023-12-14T16:11:21;20.50;56.20
16404;DHT22;8311;50.158;8.642;2023-12-14T16:14:14;20.50;56.20
16404;DHT22;8311;50.158;8.642;2023-12-14T16:17:09;20.50;56.10
16404;DHT22;8311;50.158;8.642;2023-12-14T16:20:03;20.50;56.20
16404;DHT22;8311;50.158;8.642;2023-12-14T16:22:57;20.50;56.10
16404;DHT22;8311;50.158;8.642;2023-12-14T16:25:50;20.50;56.10
16404;DHT22;8311;50.158;8.642;2023-12-14T16:28:44;20.50;56.10
16404;DHT22;8311;50.158;8.642;2023-12-14T16:31:40;20.50;56.10
16404;DHT22;8311;50.158;8.642;2023-12-14T16:34:35;20.50;56.10
16404;DHT22;8311;50.158;8.642;2023-12-14T16:37:29;20.50;56.10
16404;DHT22;8311;50.158;8.642;2023-12-14T16:40:23;20.50;56.10
16404;DHT22;8311;50.158;8.642;2023-12-14T16:43:16;20.50;56.10
16404;DHT22;8311;50.158;8.642;2023-12-14T16:46:11;20.50;56.10
16404;DHT22;8311;50.158;8.642;2023-12-14T16:49:08;20.50;56.10
16404;DHT22;8311;50.158;8.642;2023-12-14T16:52:03;20.50;56.10
16404;DHT22;8311;50.158;8.642;2023-12-14T16:54:56;20.50;56.10
16404;DHT22;8311;50.158;8.642;2023-12-14T16:57:49;20.50;56.10
16404;DHT22;8311;50.158;8.642;2023-12-14T17:00:42;20.50;56.10
16404;DHT22;8311;50.158;8.642;2023-12-14T17:03:35;20.50;56.10
16404;DHT22;8311;50.158;8.642;2023-12-14T17:06:28;20.50;56.00
16404;DHT22;8311;50.158;8.642;2023-12-14T17:09:22;20.50;56.00
16404;DHT22;8311;50.158;8.642;2023-12-14T17:12:19;20.50;56.10
16404;DHT22;8311;50.158;8.642;2023-12-14T17:15:13;20.50;56.10
16404;DHT22;8311;50.158;8.642;2023-12-14T17:18:06;20.50;56.10
16404;DHT22;8311;50.158;8.642;2023-12-14T17:20:59;20.50;56.00
16404;DHT22;8311;50.158;8.642;2023-12-14T17:23:53;20.50;56.00
16404;DHT22;8311;50.158;8.642;2023-12-14T17:26:48;20.50;56.00
16404;DHT22;8311;50.158;8.642;2023-12-14T17:29:42;20.50;56.00
16404;DHT22;8311;50.158;8.642;2023-12-14T17:32:35;20.50;56.00
16404;DHT22;8311;50.158;8.642;2023-12-14T17:35:29;20.40;56.00
16404;DHT22;8311;50.158;8.642;2023-12-14T17:38:22;20.40;56.00
16404;DHT22;8311;50.158;8.642;2023-12-14T17:41:15;20.40;56.00
16404;DHT22;8311;50.158;8.642;2023-12-14T17:44:09;20.40;55.90
16404;DHT22;8311;50.158;8.642;2023-12-14T17:47:03;20.50;56.00
16404;DHT22;8311;50.158;8.642;2023-12-14T17:49:57;20.40;56.00
16404;DHT22;8311;50.158;8.642;2023-12-14T17:52:52;20.40;55.90
16404;DHT22;8311;50.158;8.642;2023-12-14T17:55:45;20.40;55.90
16404;DHT22;8311;50.158;8.642;2023-12-14T17:58:38;20.40;55.90
16404;DHT22;8311;50.158;8.642;2023-12-14T18:01:43;20.40;55.90
16404;DHT22;8311;50.158;8.642;2023-12-14T18:04:38;20.40;55.90
16404;DHT22;8311;50.158;8.642;2023-12-14T18:07:32;20.40;55.90
16404;DHT22;8311;50.158;8.642;2023-12-14T18:10:25;20.40;55.90
16404;DHT22;8311;50.158;8.642;2023-12-14T18:13:19;20.40;56.50
16404;DHT22;8311;50.158;8.642;2023-12-14T18:16:12;20.40;55.90
16404;DHT22;8311;50.158;8.642;2023-12-14T18:19:07;20.40;55.90
16404;DHT22;8311;50.158;8.642;2023-12-14T18:22:00;20.40;55.90
16404;DHT22;8311;50.158;8.642;2023-12-14T18:24:53;20.40;55.80
16404;DHT22;8311;50.158;8.642;2023-12-14T18:27:47;20.40;55.80
16404;DHT22;8311;50.158;8.642;2023-12-14T18:30:40;20.40;55.80
16404;DHT22;8311;50.158;8.642;2023-12-14T18:33:33;20.40;55.80
16404;DHT22;8311;50.158;8.642;2023-12-14T18:36:27;20.40;55.80